sensor_id;sensor_type;location;lat;lon;timestamp;P1;durP1;ratioP1;P2;durP2;ratioP2
8887;SDS011;4480;52.370;9.748;2023-02-01T00:01:45;14.45;;;3.67;;
8887;SDS011;4480;52.370;9.748;2023-02-01T00:04:12;11.90;;;3.65;;
8887;SDS011;4480;52.370;9.748;2023-02-01T00:06:39;13.68;;;3.65;;
8887;SDS011;4480;52.370;9.748;2023-02-01T00:09:06;18.37;;;4.27;;
8887;SDS011;4480;52.370;9.748;2023-02-01T00:11:33;14.25;;;3.70;;
8887;SDS011;4480;52.370;9.748;2023-02-01T00:14:01;16.23;;;4.00;;
8887;SDS011;4480;52.370;9.748;2023-02-01T00:16:29;15.07;;;3.00;;
8887;SDS011;4480;52.370;9.748;2023-02-01T00:18:58;13.57;;;3.15;;
8887;SDS011;4480;52.370;9.748;2023-02-01T00:21:26;15.05;;;3.67;;
8887;SDS011;4480;52.370;9.748;2023-02-01T00:23:54;14.18;;;3.45;;
8887;SDS011;4480;52.370;9.748;2023-02-01T00:26:22;14.63;;;3.67;;
8887;SDS011;4480;52.370;9.748;2023-02-01T00:28:56;14.88;;;3.15;;
8887;SDS011;4480;52.370;9.748;2023-02-01T00:31:24;13.27;;;3.35;;
8887;SDS011;4480;52.370;9.748;2023-02-01T00:33:51;16.58;;;3.70;;
8887;SDS011;4480;52.370;9.748;2023-02-01T00:36:17;19.30;;;4.15;;
8887;SDS011;4480;52.370;9.748;2023-02-01T00:38:44;17.23;;;3.88;;
8887;SDS011;4480;52.370;9.748;2023-02-01T00:41:12;17.20;;;4.00;;
8887;SDS011;4480;52.370;9.748;2023-02-01T00:43:40;17.25;;;3.70;;
8887;SDS011;4480;52.370;9.748;2023-02-01T00:46:07;9.00;;;2.90;;
8887;SDS011;4480;52.370;9.748;2023-02-01T00:48:36;17.45;;;3.55;;
8887;SDS011;4480;52.370;9.748;2023-02-01T00:51:04;12.82;;;3.67;;
8887;SDS011;4480;52.370;9.748;2023-02-01T00:53:33;13.23;;;3.30;;
8887;SDS011;4480;52.370;9.748;2023-02-01T00:56:00;12.77;;;3.58;;
8887;SDS011;4480;52.370;9.748;2023-02-01T00:58:28;16.50;;;3.90;;
8887;SDS011;4480;52.370;9.748;2023-02-01T01:01:01;16.63;;;3.25;;
8887;SDS011;4480;52.370;9.748;2023-02-01T01:03:30;15.48;;;4.22;;
8887;SDS011;4480;52.370;9.748;2023-02-01T01:06:00;13.48;;;3.38;;
8887;SDS011;4480;52.370;9.748;2023-02-01T01:08:28;17.10;;;3.92;;
8887;SDS011;4480;52.370;9.748;2023-02-01T01:10:55;13.93;;;3.60;;
8887;SDS011;4480;52.370;9.748;2023-02-01T01:13:22;12.90;;;3.28;;
8887;SDS011;4480;52.370;9.748;2023-02-01T01:15:49;11.88;;;3.35;;
8887;SDS011;4480;52.370;9.748;2023-02-01T01:18:16;18.77;;;3.80;;
8887;SDS011;4480;52.370;9.748;2023-02-01T01:20:43;16.55;;;4.88;;
8887;SDS011;4480;52.370;9.748;2023-02-01T01:23:11;14.98;;;3.70;;
8887;SDS011;4480;52.370;9.748;2023-02-01T01:25:38;14.75;;;3.75;;
8887;SDS011;4480;52.370;9.748;2023-02-01T01:28:05;13.40;;;3.70;;
8887;SDS011;4480;52.370;9.748;2023-02-01T01:30:33;16.55;;;3.50;;
8887;SDS011;4480;52.370;9.748;2023-02-01T01:32:59;16.38;;;3.80;;
8887;SDS011;4480;52.370;9.748;2023-02-01T01:35:28;12.35;;;3.28;;
8887;SDS011;4480;52.370;9.748;2023-02-01T01:37:55;12.18;;;3.63;;
8887;SDS011;4480;52.370;9.748;2023-02-01T01:40:23;16.55;;;3.88;;
8887;SDS011;4480;52.370;9.748;2023-02-01T01:42:51;16.08;;;4.00;;
8887;SDS011;4480;52.370;9.748;2023-02-01T01:45:21;12.00;;;3.30;;
8887;SDS011;4480;52.370;9.748;2023-02-01T01:47:50;17.10;;;3.25;;
8887;SDS011;4480;52.370;9.748;2023-02-01T01:50:21;16.00;;;3.85;;
8887;SDS011;4480;52.370;9.748;2023-02-01T01:52:50;15.60;;;3.92;;
8887;SDS011;4480;52.370;9.748;2023-02-01T01:55:20;15.32;;;3.85;;
8887;SDS011;4480;52.370;9.748;2023-02-01T01:57:52;12.65;;;3.70;;
8887;SDS011;4480;52.370;9.748;2023-02-01T02:00:22;14.02;;;3.50;;
8887;SDS011;4480;52.370;9.748;2023-02-01T02:02:52;14.27;;;3.80;;
8887;SDS011;4480;52.370;9.748;2023-02-01T02:05:23;11.80;;;3.30;;
8887;SDS011;4480;52.370;9.748;2023-02-01T02:07:50;14.00;;;3.53;;
8887;SDS011;4480;52.370;9.748;2023-02-01T02:10:19;13.10;;;3.60;;
8887;SDS011;4480;52.370;9.748;2023-02-01T02:13:07;14.63;;;3.67;;
8887;SDS011;4480;52.370;9.748;2023-02-01T02:15:35;13.45;;;3.88;;
8887;SDS011;4480;52.370;9.748;2023-02-01T02:18:08;11.70;;;3.47;;
8887;SDS011;4480;52.370;9.748;2023-02-01T02:20:46;14.77;;;3.65;;
8887;SDS011;4480;52.370;9.748;2023-02-01T02:23:37;11.73;;;3.47;;
8887;SDS011;4480;52.370;9.748;2023-02-01T02:26:47;13.05;;;3.40;;
8887;SDS011;4480;52.370;9.748;2023-02-01T02:32:40;12.25;;;3.22;;
8887;SDS011;4480;52.370;9.748;2023-02-01T02:35:26;11.95;;;3.25;;
8887;SDS011;4480;52.370;9.748;2023-02-01T02:38:02;13.43;;;3.50;;
8887;SDS011;4480;52.370;9.748;2023-02-01T02:40:40;10.15;;;3.50;;
8887;SDS011;4480;52.370;9.748;2023-02-01T02:43:17;13.45;;;3.50;;
8887;SDS011;4480;52.370;9.748;2023-02-01T02:46:04;14.10;;;3.97;;
8887;SDS011;4480;52.370;9.748;2023-02-01T02:48:58;15.55;;;3.65;;
8887;SDS011;4480;52.370;9.748;2023-02-01T02:51:32;15.40;;;3.72;;
8887;SDS011;4480;52.370;9.748;2023-02-01T02:54:22;11.40;;;2.95;;
8887;SDS011;4480;52.370;9.748;2023-02-01T02:57:08;13.30;;;3.70;;
8887;SDS011;4480;52.370;9.748;2023-02-01T02:59:56;16.10;;;3.60;;
8887;SDS011;4480;52.370;9.748;2023-02-01T03:02:42;12.80;;;3.38;;
8887;SDS011;4480;52.370;9.748;2023-02-01T03:05:31;11.70;;;4.13;;
8887;SDS011;4480;52.370;9.748;2023-02-01T03:08:03;15.85;;;4.18;;
8887;SDS011;4480;52.370;9.748;2023-02-01T03:10:37;13.55;;;3.72;;
8887;SDS011;4480;52.370;9.748;2023-02-01T03:13:11;11.57;;;3.80;;
8887;SDS011;4480;52.370;9.748;2023-02-01T03:15:42;12.32;;;3.30;;
8887;SDS011;4480;52.370;9.748;2023-02-01T03:18:15;15.20;;;4.20;;
8887;SDS011;4480;52.370;9.748;2023-02-01T03:20:46;12.05;;;3.60;;
8887;SDS011;4480;52.370;9.748;2023-02-01T03:23:17;15.50;;;3.97;;
8887;SDS011;4480;52.370;9.748;2023-02-01T03:25:47;14.98;;;3.67;;
8887;SDS011;4480;52.370;9.748;2023-02-01T03:28:17;12.80;;;3.60;;
8887;SDS011;4480;52.370;9.748;2023-02-01T03:30:46;14.73;;;3.70;;
8887;SDS011;4480;52.370;9.748;2023-02-01T03:33:16;13.23;;;3.20;;
8887;SDS011;4480;52.370;9.748;2023-02-01T03:35:48;14.75;;;4.13;;
8887;SDS011;4480;52.370;9.748;2023-02-01T03:38:22;11.83;;;3.23;;
8887;SDS011;4480;52.370;9.748;2023-02-01T03:40:53;15.57;;;3.47;;
8887;SDS011;4480;52.370;9.748;2023-02-01T03:43:25;12.40;;;3.22;;
8887;SDS011;4480;52.370;9.748;2023-02-01T03:45:57;11.45;;;3.10;;
8887;SDS011;4480;52.370;9.748;2023-02-01T03:48:26;11.98;;;3.50;;
8887;SDS011;4480;52.370;9.748;2023-02-01T03:50:55;9.20;;;2.78;;
8887;SDS011;4480;52.370;9.748;2023-02-01T03:53:26;11.57;;;3.65;;
8887;SDS011;4480;52.370;9.748;2023-02-01T03:55:54;13.95;;;3.50;;
8887;SDS011;4480;52.370;9.748;2023-02-01T03:58:23;11.15;;;3.15;;
8887;SDS011;4480;52.370;9.748;2023-02-01T04:00:50;17.33;;;4.20;;
8887;SDS011;4480;52.370;9.748;2023-02-01T04:03:19;19.65;;;4.28;;
8887;SDS011;4480;52.370;9.748;2023-02-01T04:05:46;17.23;;;4.28;;
8887;SDS011;4480;52.370;9.748;2023-02-01T04:11:06;15.02;;;4.65;;
8887;SDS011;4480;52.370;9.748;2023-02-01T04:13:33;14.97;;;3.47;;
8887;SDS011;4480;52.370;9.748;2023-02-01T04:15:59;13.35;;;3.80;;
8887;SDS011;4480;52.370;9.748;2023-02-01T04:18:26;14.35;;;3.78;;
8887;SDS011;4480;52.370;9.748;2023-02-01T04:20:53;16.40;;;4.50;;
8887;SDS011;4480;52.370;9.748;2023-02-01T04:23:20;14.77;;;4.60;;
8887;SDS011;4480;52.370;9.748;2023-02-01T04:25:46;13.43;;;3.92;;
8887;SDS011;4480;52.370;9.748;2023-02-01T04:28:15;13.17;;;4.40;;
8887;SDS011;4480;52.370;9.748;2023-02-01T04:30:41;14.25;;;3.97;;
8887;SDS011;4480;52.370;9.748;2023-02-01T04:33:08;11.70;;;4.07;;
8887;SDS011;4480;52.370;9.748;2023-02-01T04:35:38;13.18;;;4.15;;
8887;SDS011;4480;52.370;9.748;2023-02-01T04:38:05;18.48;;;4.32;;
8887;SDS011;4480;52.370;9.748;2023-02-01T04:40:32;16.50;;;4.30;;
8887;SDS011;4480;52.370;9.748;2023-02-01T04:43:00;16.60;;;4.80;;
8887;SDS011;4480;52.370;9.748;2023-02-01T04:45:30;15.30;;;4.43;;
8887;SDS011;4480;52.370;9.748;2023-02-01T04:47:56;11.88;;;3.97;;
8887;SDS011;4480;52.370;9.748;2023-02-01T04:50:23;11.00;;;3.50;;
8887;SDS011;4480;52.370;9.748;2023-02-01T04:52:50;13.65;;;3.65;;
8887;SDS011;4480;52.370;9.748;2023-02-01T04:55:17;11.63;;;3.95;;
8887;SDS011;4480;52.370;9.748;2023-02-01T04:57:43;13.60;;;4.03;;
8887;SDS011;4480;52.370;9.748;2023-02-01T05:00:11;12.90;;;3.90;;
8887;SDS011;4480;52.370;9.748;2023-02-01T05:02:39;13.05;;;4.22;;
8887;SDS011;4480;52.370;9.748;2023-02-01T05:05:06;16.33;;;4.80;;
8887;SDS011;4480;52.370;9.748;2023-02-01T05:07:34;17.48;;;5.00;;
8887;SDS011;4480;52.370;9.748;2023-02-01T05:10:00;15.32;;;4.78;;
8887;SDS011;4480;52.370;9.748;2023-02-01T05:12:27;13.07;;;4.35;;
8887;SDS011;4480;52.370;9.748;2023-02-01T05:15:11;16.60;;;4.60;;
8887;SDS011;4480;52.370;9.748;2023-02-01T05:17:39;12.93;;;4.38;;
8887;SDS011;4480;52.370;9.748;2023-02-01T05:20:09;15.25;;;4.75;;
8887;SDS011;4480;52.370;9.748;2023-02-01T05:22:37;17.73;;;4.78;;
8887;SDS011;4480;52.370;9.748;2023-02-01T05:25:04;17.07;;;4.83;;
8887;SDS011;4480;52.370;9.748;2023-02-01T05:27:31;13.45;;;4.45;;
8887;SDS011;4480;52.370;9.748;2023-02-01T05:29:58;16.35;;;4.65;;
8887;SDS011;4480;52.370;9.748;2023-02-01T05:32:25;15.13;;;4.80;;
8887;SDS011;4480;52.370;9.748;2023-02-01T05:34:53;16.50;;;5.00;;
8887;SDS011;4480;52.370;9.748;2023-02-01T05:37:19;17.60;;;4.87;;
8887;SDS011;4480;52.370;9.748;2023-02-01T05:39:46;16.20;;;4.72;;
8887;SDS011;4480;52.370;9.748;2023-02-01T05:42:13;16.85;;;4.72;;
8887;SDS011;4480;52.370;9.748;2023-02-01T05:44:40;18.02;;;5.00;;
8887;SDS011;4480;52.370;9.748;2023-02-01T05:47:07;14.55;;;4.40;;
8887;SDS011;4480;52.370;9.748;2023-02-01T05:49:34;17.23;;;5.65;;
8887;SDS011;4480;52.370;9.748;2023-02-01T05:52:02;14.68;;;5.05;;
8887;SDS011;4480;52.370;9.748;2023-02-01T05:54:29;14.02;;;5.28;;
8887;SDS011;4480;52.370;9.748;2023-02-01T05:56:56;13.65;;;4.75;;
8887;SDS011;4480;52.370;9.748;2023-02-01T05:59:23;14.85;;;4.22;;
8887;SDS011;4480;52.370;9.748;2023-02-01T06:01:50;18.63;;;5.33;;
8887;SDS011;4480;52.370;9.748;2023-02-01T06:04:16;12.80;;;4.45;;
8887;SDS011;4480;52.370;9.748;2023-02-01T06:06:43;14.88;;;4.93;;
8887;SDS011;4480;52.370;9.748;2023-02-01T06:09:11;13.13;;;4.20;;
8887;SDS011;4480;52.370;9.748;2023-02-01T06:11:39;13.05;;;3.88;;
8887;SDS011;4480;52.370;9.748;2023-02-01T06:14:06;13.65;;;4.35;;
8887;SDS011;4480;52.370;9.748;2023-02-01T06:16:33;12.20;;;4.20;;
8887;SDS011;4480;52.370;9.748;2023-02-01T06:19:02;15.32;;;4.38;;
8887;SDS011;4480;52.370;9.748;2023-02-01T06:21:29;11.73;;;4.30;;
8887;SDS011;4480;52.370;9.748;2023-02-01T06:23:56;15.20;;;4.13;;
8887;SDS011;4480;52.370;9.748;2023-02-01T06:26:24;11.37;;;4.17;;
8887;SDS011;4480;52.370;9.748;2023-02-01T06:28:53;12.00;;;4.40;;
8887;SDS011;4480;52.370;9.748;2023-02-01T06:31:21;11.55;;;4.00;;
8887;SDS011;4480;52.370;9.748;2023-02-01T06:33:50;9.80;;;3.40;;
8887;SDS011;4480;52.370;9.748;2023-02-01T06:36:18;13.60;;;3.92;;
8887;SDS011;4480;52.370;9.748;2023-02-01T06:38:46;11.05;;;3.60;;
8887;SDS011;4480;52.370;9.748;2023-02-01T06:41:13;14.43;;;3.95;;
8887;SDS011;4480;52.370;9.748;2023-02-01T06:43:41;10.20;;;3.90;;
8887;SDS011;4480;52.370;9.748;2023-02-01T06:46:09;7.30;;;3.40;;
8887;SDS011;4480;52.370;9.748;2023-02-01T06:48:38;9.20;;;3.35;;
8887;SDS011;4480;52.370;9.748;2023-02-01T06:51:05;10.90;;;3.47;;
8887;SDS011;4480;52.370;9.748;2023-02-01T06:53:32;9.48;;;3.50;;
8887;SDS011;4480;52.370;9.748;2023-02-01T06:55:59;11.10;;;3.97;;
8887;SDS011;4480;52.370;9.748;2023-02-01T06:58:28;10.85;;;3.88;;
8887;SDS011;4480;52.370;9.748;2023-02-01T07:00:57;13.20;;;4.40;;
8887;SDS011;4480;52.370;9.748;2023-02-01T07:03:29;12.95;;;5.05;;
8887;SDS011;4480;52.370;9.748;2023-02-01T07:05:56;12.50;;;4.00;;
8887;SDS011;4480;52.370;9.748;2023-02-01T07:08:24;11.15;;;3.47;;
8887;SDS011;4480;52.370;9.748;2023-02-01T07:10:51;9.13;;;3.35;;
8887;SDS011;4480;52.370;9.748;2023-02-01T07:13:18;9.57;;;3.25;;
8887;SDS011;4480;52.370;9.748;2023-02-01T07:15:45;8.90;;;3.60;;
8887;SDS011;4480;52.370;9.748;2023-02-01T07:18:14;12.13;;;3.78;;
8887;SDS011;4480;52.370;9.748;2023-02-01T07:20:41;9.75;;;3.10;;
8887;SDS011;4480;52.370;9.748;2023-02-01T07:23:08;15.02;;;4.18;;
8887;SDS011;4480;52.370;9.748;2023-02-01T07:25:36;14.05;;;4.25;;
8887;SDS011;4480;52.370;9.748;2023-02-01T07:28:03;12.65;;;4.22;;
8887;SDS011;4480;52.370;9.748;2023-02-01T07:30:29;15.60;;;4.10;;
8887;SDS011;4480;52.370;9.748;2023-02-01T07:32:56;11.85;;;4.43;;
8887;SDS011;4480;52.370;9.748;2023-02-01T07:35:27;13.90;;;4.35;;
8887;SDS011;4480;52.370;9.748;2023-02-01T07:37:54;14.43;;;4.33;;
8887;SDS011;4480;52.370;9.748;2023-02-01T07:40:21;11.82;;;3.80;;
8887;SDS011;4480;52.370;9.748;2023-02-01T07:42:53;9.27;;;3.80;;
8887;SDS011;4480;52.370;9.748;2023-02-01T07:45:20;13.30;;;3.80;;
8887;SDS011;4480;52.370;9.748;2023-02-01T07:47:47;11.60;;;4.00;;
8887;SDS011;4480;52.370;9.748;2023-02-01T07:50:14;13.83;;;3.80;;
8887;SDS011;4480;52.370;9.748;2023-02-01T07:52:42;11.73;;;3.53;;
8887;SDS011;4480;52.370;9.748;2023-02-01T07:55:09;12.88;;;3.78;;
8887;SDS011;4480;52.370;9.748;2023-02-01T07:57:36;18.55;;;5.38;;
8887;SDS011;4480;52.370;9.748;2023-02-01T08:00:03;12.43;;;3.75;;
8887;SDS011;4480;52.370;9.748;2023-02-01T08:02:48;12.77;;;3.87;;
8887;SDS011;4480;52.370;9.748;2023-02-01T08:05:15;14.98;;;3.58;;
8887;SDS011;4480;52.370;9.748;2023-02-01T08:07:43;9.30;;;3.33;;
8887;SDS011;4480;52.370;9.748;2023-02-01T08:10:10;13.48;;;3.50;;
8887;SDS011;4480;52.370;9.748;2023-02-01T08:12:37;12.70;;;3.50;;
8887;SDS011;4480;52.370;9.748;2023-02-01T08:15:05;10.18;;;3.58;;
8887;SDS011;4480;52.370;9.748;2023-02-01T08:17:33;15.15;;;3.92;;
8887;SDS011;4480;52.370;9.748;2023-02-01T08:19:59;12.50;;;3.50;;
8887;SDS011;4480;52.370;9.748;2023-02-01T08:22:26;12.52;;;3.28;;
8887;SDS011;4480;52.370;9.748;2023-02-01T08:24:59;14.05;;;3.33;;
8887;SDS011;4480;52.370;9.748;2023-02-01T08:27:26;9.18;;;3.08;;
8887;SDS011;4480;52.370;9.748;2023-02-01T08:29:53;12.15;;;2.92;;
8887;SDS011;4480;52.370;9.748;2023-02-01T08:32:20;10.10;;;3.22;;
8887;SDS011;4480;52.370;9.748;2023-02-01T08:34:46;9.63;;;3.50;;
8887;SDS011;4480;52.370;9.748;2023-02-01T08:37:13;12.40;;;3.05;;
8887;SDS011;4480;52.370;9.748;2023-02-01T08:39:40;12.18;;;3.47;;
8887;SDS011;4480;52.370;9.748;2023-02-01T08:42:09;13.65;;;3.47;;
8887;SDS011;4480;52.370;9.748;2023-02-01T08:44:54;19.08;;;3.60;;
8887;SDS011;4480;52.370;9.748;2023-02-01T08:47:20;15.43;;;3.40;;
8887;SDS011;4480;52.370;9.748;2023-02-01T08:49:48;16.45;;;3.70;;
8887;SDS011;4480;52.370;9.748;2023-02-01T08:52:15;7.47;;;2.95;;
8887;SDS011;4480;52.370;9.748;2023-02-01T08:54:41;11.48;;;3.17;;
8887;SDS011;4480;52.370;9.748;2023-02-01T08:57:10;14.30;;;3.88;;
8887;SDS011;4480;52.370;9.748;2023-02-01T08:59:37;12.60;;;3.47;;
8887;SDS011;4480;52.370;9.748;2023-02-01T09:02:03;12.18;;;3.00;;
8887;SDS011;4480;52.370;9.748;2023-02-01T09:04:30;14.75;;;3.72;;
8887;SDS011;4480;52.370;9.748;2023-02-01T09:06:57;12.40;;;3.70;;
8887;SDS011;4480;52.370;9.748;2023-02-01T09:09:24;11.15;;;3.13;;
8887;SDS011;4480;52.370;9.748;2023-02-01T09:11:53;10.20;;;2.92;;
8887;SDS011;4480;52.370;9.748;2023-02-01T09:14:21;9.90;;;2.90;;
8887;SDS011;4480;52.370;9.748;2023-02-01T09:16:48;14.20;;;3.20;;
8887;SDS011;4480;52.370;9.748;2023-02-01T09:19:15;13.10;;;4.05;;
8887;SDS011;4480;52.370;9.748;2023-02-01T09:21:42;8.85;;;2.70;;
8887;SDS011;4480;52.370;9.748;2023-02-01T09:24:09;10.45;;;3.08;;
8887;SDS011;4480;52.370;9.748;2023-02-01T09:26:36;13.18;;;3.08;;
8887;SDS011;4480;52.370;9.748;2023-02-01T09:29:03;9.52;;;2.85;;
8887;SDS011;4480;52.370;9.748;2023-02-01T09:31:37;13.85;;;3.50;;
8887;SDS011;4480;52.370;9.748;2023-02-01T09:34:05;10.25;;;3.15;;
8887;SDS011;4480;52.370;9.748;2023-02-01T09:36:32;7.65;;;2.80;;
8887;SDS011;4480;52.370;9.748;2023-02-01T09:39:00;12.05;;;2.80;;
8887;SDS011;4480;52.370;9.748;2023-02-01T09:41:32;9.35;;;2.85;;
8887;SDS011;4480;52.370;9.748;2023-02-01T09:44:08;8.02;;;3.10;;
8887;SDS011;4480;52.370;9.748;2023-02-01T09:46:44;10.35;;;3.90;;
8887;SDS011;4480;52.370;9.748;2023-02-01T09:49:13;9.93;;;2.45;;
8887;SDS011;4480;52.370;9.748;2023-02-01T09:51:45;13.32;;;3.35;;
8887;SDS011;4480;52.370;9.748;2023-02-01T09:54:15;10.35;;;3.05;;
8887;SDS011;4480;52.370;9.748;2023-02-01T09:56:45;12.63;;;3.30;;
8887;SDS011;4480;52.370;9.748;2023-02-01T09:59:19;10.60;;;3.15;;
8887;SDS011;4480;52.370;9.748;2023-02-01T10:01:58;10.52;;;3.30;;
8887;SDS011;4480;52.370;9.748;2023-02-01T10:04:25;11.52;;;3.28;;
8887;SDS011;4480;52.370;9.748;2023-02-01T10:06:56;10.07;;;3.57;;
8887;SDS011;4480;52.370;9.748;2023-02-01T10:09:32;10.10;;;3.30;;
8887;SDS011;4480;52.370;9.748;2023-02-01T10:12:23;7.28;;;2.85;;
8887;SDS011;4480;52.370;9.748;2023-02-01T10:15:13;10.88;;;2.80;;
8887;SDS011;4480;52.370;9.748;2023-02-01T10:17:53;11.10;;;2.78;;
8887;SDS011;4480;52.370;9.748;2023-02-01T10:20:29;12.18;;;3.22;;
8887;SDS011;4480;52.370;9.748;2023-02-01T10:23:06;12.38;;;3.55;;
8887;SDS011;4480;52.370;9.748;2023-02-01T10:25:44;11.75;;;3.42;;
8887;SDS011;4480;52.370;9.748;2023-02-01T10:28:20;8.40;;;2.40;;
8887;SDS011;4480;52.370;9.748;2023-02-01T10:30:49;12.73;;;3.35;;
8887;SDS011;4480;52.370;9.748;2023-02-01T10:33:23;8.75;;;2.90;;
8887;SDS011;4480;52.370;9.748;2023-02-01T10:35:53;11.83;;;3.43;;
8887;SDS011;4480;52.370;9.748;2023-02-01T10:38:26;11.43;;;3.08;;
8887;SDS011;4480;52.370;9.748;2023-02-01T10:40:55;10.38;;;4.00;;
8887;SDS011;4480;52.370;9.748;2023-02-01T10:43:24;10.02;;;2.92;;
8887;SDS011;4480;52.370;9.748;2023-02-01T10:45:51;12.43;;;3.17;;
8887;SDS011;4480;52.370;9.748;2023-02-01T10:48:18;9.10;;;3.35;;
8887;SDS011;4480;52.370;9.748;2023-02-01T10:50:48;9.07;;;3.30;;
8887;SDS011;4480;52.370;9.748;2023-02-01T10:53:21;8.80;;;2.90;;
8887;SDS011;4480;52.370;9.748;2023-02-01T10:55:54;11.37;;;3.20;;
8887;SDS011;4480;52.370;9.748;2023-02-01T10:58:26;9.45;;;2.78;;
8887;SDS011;4480;52.370;9.748;2023-02-01T11:00:57;9.40;;;3.17;;
8887;SDS011;4480;52.370;9.748;2023-02-01T11:03:31;15.73;;;3.43;;
8887;SDS011;4480;52.370;9.748;2023-02-01T11:06:02;12.52;;;2.80;;
8887;SDS011;4480;52.370;9.748;2023-02-01T11:08:35;10.15;;;2.80;;
8887;SDS011;4480;52.370;9.748;2023-02-01T11:11:09;9.40;;;2.65;;
8887;SDS011;4480;52.370;9.748;2023-02-01T11:13:37;12.25;;;2.88;;
8887;SDS011;4480;52.370;9.748;2023-02-01T11:16:05;9.85;;;2.90;;
8887;SDS011;4480;52.370;9.748;2023-02-01T11:18:37;7.35;;;2.63;;
8887;SDS011;4480;52.370;9.748;2023-02-01T11:21:06;9.93;;;2.60;;
8887;SDS011;4480;52.370;9.748;2023-02-01T11:23:39;10.13;;;2.90;;
8887;SDS011;4480;52.370;9.748;2023-02-01T11:26:10;8.10;;;2.63;;
8887;SDS011;4480;52.370;9.748;2023-02-01T11:28:39;11.15;;;2.97;;
8887;SDS011;4480;52.370;9.748;2023-02-01T11:31:16;8.77;;;3.07;;
8887;SDS011;4480;52.370;9.748;2023-02-01T11:33:45;9.57;;;3.00;;
8887;SDS011;4480;52.370;9.748;2023-02-01T11:36:17;10.70;;;3.00;;
8887;SDS011;4480;52.370;9.748;2023-02-01T11:38:50;8.77;;;2.90;;
8887;SDS011;4480;52.370;9.748;2023-02-01T11:41:23;11.73;;;3.30;;
8887;SDS011;4480;52.370;9.748;2023-02-01T11:43:53;9.85;;;2.88;;
8887;SDS011;4480;52.370;9.748;2023-02-01T11:46:24;10.73;;;2.97;;
8887;SDS011;4480;52.370;9.748;2023-02-01T11:48:55;12.63;;;3.38;;
8887;SDS011;4480;52.370;9.748;2023-02-01T11:51:34;8.20;;;2.70;;
8887;SDS011;4480;52.370;9.748;2023-02-01T11:54:14;8.68;;;2.70;;
8887;SDS011;4480;52.370;9.748;2023-02-01T11:56:54;11.73;;;3.40;;
8887;SDS011;4480;52.370;9.748;2023-02-01T11:59:38;10.37;;;3.20;;
8887;SDS011;4480;52.370;9.748;2023-02-01T12:05:27;11.73;;;3.00;;
8887;SDS011;4480;52.370;9.748;2023-02-01T12:08:17;13.38;;;3.45;;
8887;SDS011;4480;52.370;9.748;2023-02-01T12:11:03;11.33;;;3.13;;
8887;SDS011;4480;52.370;9.748;2023-02-01T12:13:47;7.85;;;3.10;;
8887;SDS011;4480;52.370;9.748;2023-02-01T12:16:23;12.40;;;3.10;;
8887;SDS011;4480;52.370;9.748;2023-02-01T12:19:01;9.70;;;3.25;;
8887;SDS011;4480;52.370;9.748;2023-02-01T12:21:48;11.73;;;3.08;;
8887;SDS011;4480;52.370;9.748;2023-02-01T12:24:57;10.35;;;2.95;;
8887;SDS011;4480;52.370;9.748;2023-02-01T12:27:50;7.85;;;3.03;;
8887;SDS011;4480;52.370;9.748;2023-02-01T12:30:41;8.32;;;3.17;;
8887;SDS011;4480;52.370;9.748;2023-02-01T12:33:17;9.90;;;3.00;;
8887;SDS011;4480;52.370;9.748;2023-02-01T12:35:59;11.07;;;3.17;;
8887;SDS011;4480;52.370;9.748;2023-02-01T12:38:39;12.52;;;4.35;;
8887;SDS011;4480;52.370;9.748;2023-02-01T12:41:32;7.17;;;2.90;;
8887;SDS011;4480;52.370;9.748;2023-02-01T12:44:25;8.90;;;3.10;;
8887;SDS011;4480;52.370;9.748;2023-02-01T12:46:57;7.80;;;2.65;;
8887;SDS011;4480;52.370;9.748;2023-02-01T12:49:30;9.15;;;4.13;;
8887;SDS011;4480;52.370;9.748;2023-02-01T12:52:09;9.10;;;3.17;;
8887;SDS011;4480;52.370;9.748;2023-02-01T12:54:40;12.25;;;3.25;;
8887;SDS011;4480;52.370;9.748;2023-02-01T12:57:15;7.50;;;3.03;;
8887;SDS011;4480;52.370;9.748;2023-02-01T12:59:44;8.35;;;3.00;;
8887;SDS011;4480;52.370;9.748;2023-02-01T13:02:16;7.47;;;2.70;;
8887;SDS011;4480;52.370;9.748;2023-02-01T13:04:52;5.80;;;2.13;;
8887;SDS011;4480;52.370;9.748;2023-02-01T13:07:28;7.25;;;2.70;;
8887;SDS011;4480;52.370;9.748;2023-02-01T13:10:02;7.80;;;2.80;;
8887;SDS011;4480;52.370;9.748;2023-02-01T13:12:40;4.80;;;2.72;;
8887;SDS011;4480;52.370;9.748;2023-02-01T13:15:16;6.80;;;2.30;;
8887;SDS011;4480;52.370;9.748;2023-02-01T13:17:47;6.00;;;3.00;;
8887;SDS011;4480;52.370;9.748;2023-02-01T13:20:16;5.45;;;2.35;;
8887;SDS011;4480;52.370;9.748;2023-02-01T13:22:48;5.65;;;2.00;;
8887;SDS011;4480;52.370;9.748;2023-02-01T13:25:21;5.35;;;2.30;;
8887;SDS011;4480;52.370;9.748;2023-02-01T13:27:58;6.50;;;2.40;;
8887;SDS011;4480;52.370;9.748;2023-02-01T13:30:38;5.80;;;2.25;;
8887;SDS011;4480;52.370;9.748;2023-02-01T13:36:20;2.70;;;1.30;;
8887;SDS011;4480;52.370;9.748;2023-02-01T13:41:55;0.93;;;0.50;;
8887;SDS011;4480;52.370;9.748;2023-02-01T13:44:28;1.67;;;0.50;;
8887;SDS011;4480;52.370;9.748;2023-02-01T13:47:00;1.00;;;0.70;;
8887;SDS011;4480;52.370;9.748;2023-02-01T13:49:30;2.30;;;0.90;;
8887;SDS011;4480;52.370;9.748;2023-02-01T13:52:03;1.60;;;0.73;;
8887;SDS011;4480;52.370;9.748;2023-02-01T13:54:31;2.30;;;0.60;;
8887;SDS011;4480;52.370;9.748;2023-02-01T13:57:00;2.42;;;0.80;;
8887;SDS011;4480;52.370;9.748;2023-02-01T14:06:00;2.47;;;0.70;;
8887;SDS011;4480;52.370;9.748;2023-02-01T14:08:42;2.83;;;1.10;;
8887;SDS011;4480;52.370;9.748;2023-02-01T14:11:31;2.22;;;1.00;;
8887;SDS011;4480;52.370;9.748;2023-02-01T14:23:27;1.70;;;0.80;;
8887;SDS011;4480;52.370;9.748;2023-02-01T14:26:08;1.70;;;0.70;;
8887;SDS011;4480;52.370;9.748;2023-02-01T14:28:41;1.40;;;0.90;;
8887;SDS011;4480;52.370;9.748;2023-02-01T14:31:15;2.45;;;0.80;;
8887;SDS011;4480;52.370;9.748;2023-02-01T14:33:58;2.20;;;1.00;;
8887;SDS011;4480;52.370;9.748;2023-02-01T14:36:36;1.20;;;0.80;;
8887;SDS011;4480;52.370;9.748;2023-02-01T14:39:18;1.00;;;0.70;;
8887;SDS011;4480;52.370;9.748;2023-02-01T14:41:47;2.70;;;0.70;;
8887;SDS011;4480;52.370;9.748;2023-02-01T14:44:23;2.20;;;0.90;;
8887;SDS011;4480;52.370;9.748;2023-02-01T14:47:08;1.50;;;0.80;;
8887;SDS011;4480;52.370;9.748;2023-02-01T14:50:02;2.47;;;0.87;;
8887;SDS011;4480;52.370;9.748;2023-02-01T14:52:45;1.20;;;0.90;;
8887;SDS011;4480;52.370;9.748;2023-02-01T14:55:15;1.90;;;0.90;;
8887;SDS011;4480;52.370;9.748;2023-02-01T14:57:46;3.13;;;0.90;;
8887;SDS011;4480;52.370;9.748;2023-02-01T15:00:20;2.80;;;1.00;;
8887;SDS011;4480;52.370;9.748;2023-02-01T15:02:51;2.10;;;0.80;;
8887;SDS011;4480;52.370;9.748;2023-02-01T15:05:24;3.45;;;0.98;;
8887;SDS011;4480;52.370;9.748;2023-02-01T15:07:55;3.20;;;1.23;;
8887;SDS011;4480;52.370;9.748;2023-02-01T15:10:27;4.63;;;1.23;;
8887;SDS011;4480;52.370;9.748;2023-02-01T15:12:57;2.40;;;1.25;;
8887;SDS011;4480;52.370;9.748;2023-02-01T15:15:24;5.15;;;1.30;;
8887;SDS011;4480;52.370;9.748;2023-02-01T15:17:51;2.65;;;1.30;;
8887;SDS011;4480;52.370;9.748;2023-02-01T15:20:20;3.63;;;1.40;;
8887;SDS011;4480;52.370;9.748;2023-02-01T15:22:52;3.15;;;1.50;;
8887;SDS011;4480;52.370;9.748;2023-02-01T15:25:21;2.70;;;1.20;;
8887;SDS011;4480;52.370;9.748;2023-02-01T15:27:50;3.20;;;1.50;;
8887;SDS011;4480;52.370;9.748;2023-02-01T15:30:18;3.38;;;1.40;;
8887;SDS011;4480;52.370;9.748;2023-02-01T15:32:47;4.85;;;1.35;;
8887;SDS011;4480;52.370;9.748;2023-02-01T15:35:34;5.33;;;1.53;;
8887;SDS011;4480;52.370;9.748;2023-02-01T15:41:03;4.03;;;1.35;;
8887;SDS011;4480;52.370;9.748;2023-02-01T15:43:35;3.90;;;1.33;;
8887;SDS011;4480;52.370;9.748;2023-02-01T15:46:07;3.83;;;1.48;;
8887;SDS011;4480;52.370;9.748;2023-02-01T15:48:37;6.95;;;2.05;;
8887;SDS011;4480;52.370;9.748;2023-02-01T15:51:11;4.60;;;2.00;;
8887;SDS011;4480;52.370;9.748;2023-02-01T15:53:43;7.45;;;2.00;;
8887;SDS011;4480;52.370;9.748;2023-02-01T15:56:16;7.10;;;2.30;;
8887;SDS011;4480;52.370;9.748;2023-02-01T15:58:51;7.30;;;2.22;;
8887;SDS011;4480;52.370;9.748;2023-02-01T16:01:21;5.38;;;2.10;;
8887;SDS011;4480;52.370;9.748;2023-02-01T16:03:48;7.18;;;2.40;;
8887;SDS011;4480;52.370;9.748;2023-02-01T16:06:28;4.22;;;1.80;;